Time;durP1;ratioP1;P1;durP2;ratioP2;P2;SDS_P1;SDS_P2;PMS_P1;PMS_P2;Temp;Humidity;BMP_temperature;BMP_pressure;BME280_temperature;BME280_humidity;BME280_pressure;Samples;Min_cycle;Max_cycle;Signal;HPM_P1;HPM_P2
2022/07/28 00:02:08;;;;;;;1.05;0.50;;;;;;;26.42;40.82;101988.78;5049592;28;20031;-67
2022/07/28 00:04:33;;;;;;;0.70;0.60;;;;;;;26.40;41.00;101999.53;5049276;28;20068;-66
2022/07/28 00:06:59;;;;;;;0.70;0.60;;;;;;;26.43;40.80;101994.06;5049579;28;20029;-66
2022/07/28 00:09:25;;;;;;;0.60;0.40;;;;;;;26.41;40.88;101992.41;5047957;28;20031;-66
2022/07/28 00:11:51;;;;;;;0.90;0.60;;;;;;;26.43;40.74;101995.88;5049581;28;20371;-66
2022/07/28 00:14:16;;;;;;;0.82;0.60;;;;;;;26.41;40.56;101985.22;5048041;28;20044;-67
2022/07/28 00:16:41;;;;;;;1.02;0.60;;;;;;;26.41;40.80;101997.75;5048341;28;20033;-67
2022/07/28 00:19:07;;;;;;;0.90;0.60;;;;;;;26.37;40.97;101996.09;5049378;28;20033;-66
2022/07/28 00:21:32;;;;;;;0.73;0.57;;;;;;;26.38;40.71;101989.81;5048669;28;20174;-67
2022/07/28 00:23:57;;;;;;;0.90;0.60;;;;;;;26.38;40.70;101990.69;5049351;28;20063;-66
2022/07/28 00:26:23;;;;;;;0.73;0.60;;;;;;;26.38;40.92;101990.69;5049366;28;20048;-66
2022/07/28 00:28:48;;;;;;;0.65;0.60;;;;;;;26.36;40.78;101984.50;5049598;28;20028;-66
2022/07/28 00:31:14;;;;;;;0.60;0.50;;;;;;;26.36;40.85;101988.97;5054882;28;20485;-66
2022/07/28 00:33:40;;;;;;;0.82;0.60;;;;;;;26.34;40.89;101990.84;5067260;28;20032;-66
2022/07/28 00:36:07;;;;;;;0.93;0.57;;;;;;;26.35;40.84;101988.09;5069712;28;20099;-67
2022/07/28 00:38:33;;;;;;;1.63;0.70;;;;;;;26.34;40.83;101985.50;5073290;28;20028;-66
2022/07/28 00:41:12;;;;;;;1.42;0.60;;;;;;;26.34;40.79;101978.38;5055997;28;20029;-66
2022/07/28 00:43:40;;;;;;;0.85;0.50;;;;;;;26.34;40.89;101982.84;5053190;28;20056;-67
2022/07/28 00:46:05;;;;;;;0.95;0.70;;;;;;;26.35;40.79;101988.09;5053282;28;20140;-66
2022/07/28 00:48:31;;;;;;;0.57;0.50;;;;;;;26.34;40.90;101982.84;5051834;28;20645;-66
2022/07/28 00:50:56;;;;;;;0.70;0.50;;;;;;;26.32;40.88;101977.53;5052684;28;20059;-66
2022/07/28 00:53:22;;;;;;;0.98;0.65;;;;;;;26.33;40.84;101971.25;5053028;28;20116;-66
2022/07/28 00:55:47;;;;;;;0.65;0.55;;;;;;;26.31;40.80;101962.41;5053066;28;20045;-67
2022/07/28 00:58:13;;;;;;;0.88;0.50;;;;;;;26.31;40.86;101969.56;5035167;28;20387;-66
2022/07/28 01:00:38;;;;;;;0.70;0.60;;;;;;;26.30;40.62;101974.03;5051199;28;20043;-66
2022/07/28 01:03:05;;;;;;;0.80;0.50;;;;;;;26.30;40.98;101975.81;5051736;28;20032;-67
2022/07/28 01:05:42;;;;;;;0.60;0.60;;;;;;;26.29;40.92;101976.78;5053027;28;20045;-67
2022/07/28 01:08:32;;;;;;;0.80;0.60;;;;;;;26.31;40.81;101972.22;5044731;28;20463;-66
2022/07/28 01:11:05;;;;;;;1.02;0.55;;;;;;;26.29;40.93;101976.78;5053110;28;20139;-66
2022/07/28 01:13:44;;;;;;;0.60;0.60;;;;;;;26.26;40.76;101967.06;5064407;28;20035;-67
2022/07/28 01:16:10;;;;;;;0.75;0.60;;;;;;;26.27;40.95;101974.16;5072816;28;20479;-67
2022/07/28 01:18:43;;;;;;;0.80;0.60;;;;;;;26.28;40.74;101969.69;5054304;28;20114;-66
2022/07/28 01:21:14;;;;;;;0.80;0.60;;;;;;;26.27;40.94;101963.47;5052512;28;20028;-66
2022/07/28 01:23:53;;;;;;;0.90;0.60;;;;;;;26.23;40.89;101968.00;5051329;28;20037;-66
2022/07/28 01:26:49;;;;;;;0.90;0.60;;;;;;;26.25;40.93;101966.19;5051899;28;20376;-67
2022/07/28 01:29:26;;;;;;;0.90;0.60;;;;;;;26.23;40.91;101960.00;5051826;28;20473;-67
2022/07/28 01:32:00;;;;;;;0.70;0.60;;;;;;;26.22;41.04;101958.25;5052388;28;20121;-67
2022/07/28 01:34:32;;;;;;;0.75;0.60;;;;;;;26.25;40.72;101959.94;5052269;28;20028;-66
2022/07/28 01:37:04;;;;;;;0.85;0.60;;;;;;;26.24;40.72;101950.19;5052499;28;20020;-67
2022/07/28 01:39:32;;;;;;;1.30;0.63;;;;;;;26.23;40.89;101956.41;5052105;28;20033;-66
2022/07/28 01:42:01;;;;;;;0.85;0.60;;;;;;;26.22;40.77;101955.56;5052489;28;20490;-66
2022/07/28 01:44:28;;;;;;;0.70;0.60;;;;;;;26.22;40.84;101950.22;5058771;28;20040;-66
2022/07/28 01:46:57;;;;;;;0.70;0.60;;;;;;;26.23;40.75;101948.41;5071554;28;20082;-67
2022/07/28 01:49:26;;;;;;;0.77;0.68;;;;;;;26.23;40.84;101951.97;5071942;28;20031;-67
2022/07/28 01:51:53;;;;;;;0.73;0.52;;;;;;;26.22;40.69;101949.34;5072047;28;20509;-66
2022/07/28 01:54:21;;;;;;;0.50;0.50;;;;;;;26.22;40.53;101946.69;5068643;28;20111;-66
2022/07/28 01:56:50;;;;;;;0.80;0.60;;;;;;;26.19;40.67;101950.31;5060031;28;20047;-67
2022/07/28 01:59:17;;;;;;;0.82;0.60;;;;;;;26.18;40.73;101956.59;5071253;28;20032;-67
2022/07/28 02:01:44;;;;;;;0.70;0.60;;;;;;;26.18;40.84;101945.00;5070212;28;20032;-66
2022/07/28 02:04:11;;;;;;;0.52;0.50;;;;;;;26.17;40.92;101938.78;5070472;28;20070;-66
2022/07/28 02:06:39;;;;;;;0.93;0.60;;;;;;;26.18;40.91;101947.69;5071585;28;20071;-66
2022/07/28 02:09:06;;;;;;;0.57;0.50;;;;;;;26.19;40.71;101946.75;5070957;28;20036;-67
2022/07/28 02:11:40;;;;;;;0.70;0.60;;;;;;;26.17;40.90;101945.94;5071789;28;20028;-66
2022/07/28 02:14:13;;;;;;;1.45;0.70;;;;;;;26.18;40.67;101942.34;5071491;28;20024;-66
2022/07/28 02:16:43;;;;;;;1.02;0.70;;;;;;;26.19;40.66;101939.63;5071458;28;20062;-67
2022/07/28 02:19:10;;;;;;;0.77;0.50;;;;;;;26.16;40.69;101938.88;5071226;28;20028;-67
2022/07/28 02:21:37;;;;;;;0.70;0.60;;;;;;;26.15;40.74;101939.78;5071272;28;20036;-66
2022/07/28 02:24:04;;;;;;;0.93;0.60;;;;;;;26.14;40.79;101933.56;5070324;28;20024;-66
2022/07/28 02:26:34;;;;;;;0.90;0.50;;;;;;;26.14;41.02;101938.91;5051195;28;20047;-66
2022/07/28 02:29:04;;;;;;;0.75;0.60;;;;;;;26.12;40.59;101937.19;5051588;28;20721;-66
2022/07/28 02:31:38;;;;;;;0.68;0.60;;;;;;;26.11;40.77;101939.00;5059912;28;20084;-67
2022/07/28 02:34:06;;;;;;;0.55;0.55;;;;;;;26.12;40.76;101939.88;5071146;28;20366;-66
2022/07/28 02:36:37;;;;;;;1.05;0.60;;;;;;;26.11;40.96;101936.31;5071149;28;20423;-66
2022/07/28 02:39:11;;;;;;;0.98;0.73;;;;;;;26.12;40.83;101937.19;5070977;28;20078;-66
2022/07/28 02:41:39;;;;;;;0.85;0.60;;;;;;;26.12;40.67;101939.88;5071163;28;20056;-66
2022/07/28 02:44:13;;;;;;;0.75;0.50;;;;;;;26.10;40.82;101944.41;5070828;28;20045;-66
2022/07/28 02:46:42;;;;;;;1.58;0.50;;;;;;;26.08;40.76;101947.13;5052904;28;20048;-66
2022/07/28 02:49:17;;;;;;;0.73;0.50;;;;;;;26.10;40.88;101936.41;5050774;28;20047;-66
2022/07/28 02:51:44;;;;;;;0.63;0.50;;;;;;;26.08;40.77;101943.59;5049542;28;20108;-66
2022/07/28 02:54:10;;;;;;;0.70;0.50;;;;;;;26.08;40.82;101948.94;5050789;28;20487;-66
2022/07/28 02:56:37;;;;;;;0.60;0.60;;;;;;;26.06;40.78;101951.66;5058433;28;20059;-67
2022/07/28 02:59:03;;;;;;;0.77;0.60;;;;;;;26.06;40.70;101954.31;5069926;28;20043;-67
2022/07/28 03:01:29;;;;;;;0.70;0.50;;;;;;;26.04;40.71;101956.19;5070757;28;20047;-66
2022/07/28 03:03:55;;;;;;;0.82;0.50;;;;;;;26.06;40.85;101956.13;5070620;28;20028;-67
2022/07/28 03:06:22;;;;;;;0.70;0.60;;;;;;;26.04;40.78;101956.19;5052264;28;20089;-67
2022/07/28 03:08:49;;;;;;;0.70;0.60;;;;;;;26.03;40.72;101946.44;5070242;28;20059;-67
2022/07/28 03:11:14;;;;;;;1.00;0.60;;;;;;;26.02;40.79;101941.13;5070441;28;20039;-66
2022/07/28 03:13:40;;;;;;;0.88;0.50;;;;;;;26.05;40.84;101938.34;5052574;28;20494;-66
2022/07/28 03:16:06;;;;;;;0.65;0.50;;;;;;;26.01;40.80;101947.38;5070355;28;20021;-67
2022/07/28 03:18:32;;;;;;;0.85;0.50;;;;;;;26.03;40.78;101937.53;5070123;28;20029;-67
2022/07/28 03:20:57;;;;;;;0.77;0.60;;;;;;;26.00;40.51;101938.50;5070126;28;20029;-66
2022/07/28 03:23:42;;;;;;;0.68;0.50;;;;;;;25.98;40.80;101942.16;5069143;28;20036;-67
2022/07/28 03:26:17;;;;;;;0.70;0.50;;;;;;;26.01;40.76;101940.25;5070542;28;20028;-66
2022/07/28 03:28:44;;;;;;;1.45;0.60;;;;;;;26.02;40.68;101946.47;5069940;28;20029;-66
2022/07/28 03:31:10;;;;;;;0.90;0.63;;;;;;;25.98;40.83;101944.84;5069929;28;20378;-66
2022/07/28 03:33:37;;;;;;;0.80;0.60;;;;;;;25.97;40.78;101945.75;5070141;28;20039;-66
2022/07/28 03:36:08;;;;;;;0.70;0.60;;;;;;;25.98;40.49;101940.38;5069485;28;20032;-66
2022/07/28 03:39:04;;;;;;;0.80;0.55;;;;;;;25.98;40.69;101937.69;5069872;28;20650;-67
2022/07/28 03:41:32;;;;;;;0.50;0.50;;;;;;;25.96;40.83;101941.34;5069873;28;20093;-67
2022/07/28 03:43:59;;;;;;;0.60;0.52;;;;;;;25.98;40.71;101940.38;5068867;28;20139;-69
2022/07/28 03:46:26;;;;;;;0.70;0.50;;;;;;;25.96;40.84;101934.19;5069534;28;20178;-66
2022/07/28 03:48:52;;;;;;;0.60;0.50;;;;;;;25.93;40.48;101939.63;5069825;28;20036;-67
2022/07/28 03:51:17;;;;;;;0.93;0.60;;;;;;;25.95;40.50;101942.25;5051273;28;20037;-66
2022/07/28 03:53:43;;;;;;;0.60;0.50;;;;;;;25.93;40.72;101947.63;5047934;28;20048;-66
2022/07/28 03:56:09;;;;;;;0.80;0.50;;;;;;;25.93;40.80;101942.28;5048211;28;20898;-66
2022/07/28 03:58:34;;;;;;;2.03;0.70;;;;;;;25.96;40.56;101944.88;5063622;28;20045;-67
2022/07/28 04:01:00;;;;;;;0.50;0.50;;;;;;;25.92;40.85;101943.25;5053776;28;20027;-66
2022/07/28 04:03:26;;;;;;;0.60;0.52;;;;;;;25.91;41.09;101944.16;5059062;28;20055;-66
2022/07/28 04:05:54;;;;;;;0.73;0.60;;;;;;;25.92;40.87;101948.59;5068050;28;20043;-67
2022/07/28 04:08:19;;;;;;;0.60;0.50;;;;;;;25.89;40.70;101942.47;5063832;28;20043;-66
2022/07/28 04:10:45;;;;;;;1.05;0.60;;;;;;;25.90;40.68;101941.53;5069247;28;20029;-66
2022/07/28 04:13:11;;;;;;;0.80;0.63;;;;;;;25.86;40.90;101952.31;5069129;28;20040;-66
2022/07/28 04:15:36;;;;;;;1.30;0.70;;;;;;;25.89;40.80;101951.34;5068899;28;20028;-66
2022/07/28 04:18:02;;;;;;;0.77;0.60;;;;;;;25.88;40.66;101954.94;5068208;28;20035;-66
2022/07/28 04:20:27;;;;;;;1.02;0.60;;;;;;;25.88;40.60;101954.94;5067928;28;20032;-66
2022/07/28 04:22:53;;;;;;;1.77;0.70;;;;;;;25.88;40.66;101959.41;5067584;28;20111;-67
2022/07/28 04:25:23;;;;;;;0.70;0.50;;;;;;;25.87;40.83;101961.19;5068638;28;20068;-67
2022/07/28 04:27:49;;;;;;;0.90;0.63;;;;;;;25.85;40.64;101955.94;5057606;28;20029;-67
2022/07/28 04:30:17;;;;;;;0.80;0.63;;;;;;;25.85;40.65;101965.75;5049312;28;20467;-67
2022/07/28 04:32:44;;;;;;;0.80;0.60;;;;;;;25.79;40.75;101960.59;5049358;28;20037;-66
2022/07/28 04:35:10;;;;;;;0.70;0.60;;;;;;;25.84;40.83;101959.53;5049458;28;20033;-66
2022/07/28 04:37:36;;;;;;;0.68;0.60;;;;;;;25.84;40.81;101950.63;5058921;28;20482;-66
2022/07/28 04:40:03;;;;;;;0.90;0.60;;;;;;;25.81;40.66;101954.25;5068877;28;20104;-66
2022/07/28 04:42:29;;;;;;;1.05;0.50;;;;;;;25.78;40.75;101958.84;5048391;28;20036;-67
2022/07/28 04:44:55;;;;;;;1.15;0.60;;;;;;;25.74;40.87;101966.06;5048961;28;20079;-66
2022/07/28 04:47:20;;;;;;;0.60;0.60;;;;;;;25.80;40.68;101965.88;5048946;28;20033;-66
2022/07/28 04:49:46;;;;;;;0.70;0.50;;;;;;;25.76;40.88;101966.03;5047227;28;20039;-66
2022/07/28 04:52:11;;;;;;;0.98;0.57;;;;;;;25.75;40.75;101964.28;5047586;28;20421;-66
2022/07/28 04:54:37;;;;;;;0.70;0.60;;;;;;;25.72;40.81;101957.25;5048827;28;20423;-67
2022/07/28 04:57:03;;;;;;;1.00;0.70;;;;;;;25.72;40.93;101965.28;5062642;28;20032;-66
2022/07/28 04:59:29;;;;;;;0.80;0.60;;;;;;;25.77;40.78;101968.66;5048621;28;20091;-66
2022/07/28 05:01:57;;;;;;;0.70;0.57;;;;;;;25.74;40.77;101973.22;5047529;28;20877;-66
2022/07/28 05:04:23;;;;;;;0.55;0.50;;;;;;;25.62;41.06;101969.13;5048853;28;20044;-66
2022/07/28 05:06:49;;;;;;;1.00;0.60;;;;;;;25.71;40.78;101968.84;5047911;28;20029;-66
2022/07/28 05:09:14;;;;;;;0.70;0.60;;;;;;;25.70;40.81;101964.44;5048999;28;20091;-66
2022/07/28 05:11:41;;;;;;;0.80;0.60;;;;;;;25.73;41.17;101968.81;5047957;28;20391;-67
2022/07/28 05:14:06;;;;;;;1.48;0.52;;;;;;;25.70;40.70;101966.22;5049079;28;20025;-66
2022/07/28 05:16:31;;;;;;;0.90;0.55;;;;;;;25.74;40.52;101968.75;5048178;28;20021;-66
2022/07/28 05:18:57;;;;;;;0.95;0.60;;;;;;;25.67;40.84;101967.22;5048791;28;20040;-66
2022/07/28 05:21:22;;;;;;;1.25;0.68;;;;;;;25.73;40.79;101967.03;5052442;28;20056;-67
2022/07/28 05:23:48;;;;;;;0.80;0.60;;;;;;;25.67;40.97;101971.69;5051822;28;20060;-66
2022/07/28 05:26:13;;;;;;;0.60;0.57;;;;;;;25.66;41.04;101964.59;5072150;28;20550;-66
2022/07/28 05:28:39;;;;;;;0.70;0.60;;;;;;;25.64;40.94;101974.44;5066383;28;20036;-66
2022/07/28 05:31:06;;;;;;;0.70;0.60;;;;;;;25.69;40.85;101968.03;5051950;28;20033;-66
2022/07/28 05:33:32;;;;;;;0.98;0.60;;;;;;;25.67;40.87;101972.56;5068819;28;20561;-66
2022/07/28 05:35:58;;;;;;;0.73;0.50;;;;;;;25.64;40.98;101980.66;5071658;28;20116;-67
2022/07/28 05:38:23;;;;;;;0.73;0.60;;;;;;;25.71;40.63;101976.88;5070596;28;20044;-67
2022/07/28 05:40:49;;;;;;;0.80;0.50;;;;;;;25.71;40.75;101971.53;5072057;28;20036;-67
2022/07/28 05:43:14;;;;;;;0.85;0.60;;;;;;;25.73;40.55;101975.03;5071947;28;20052;-66
2022/07/28 05:45:40;;;;;;;0.60;0.50;;;;;;;25.73;40.80;101977.72;5072065;28;20466;-67
2022/07/28 05:48:05;;;;;;;0.60;0.50;;;;;;;25.72;40.75;101978.63;5071296;28;20024;-66
2022/07/28 05:50:31;;;;;;;0.80;0.57;;;;;;;25.74;40.69;101976.75;5053847;28;20483;-67
2022/07/28 05:52:56;;;;;;;1.10;0.60;;;;;;;25.72;40.76;101975.94;5071651;28;20056;-67
2022/07/28 05:55:22;;;;;;;0.60;0.57;;;;;;;25.73;40.74;101972.38;5059731;28;20063;-67
2022/07/28 05:57:47;;;;;;;0.90;0.70;;;;;;;25.85;40.71;101976.44;5069381;28;20028;-67
2022/07/28 06:00:18;;;;;;;1.02;0.52;;;;;;;25.95;40.58;101975.19;5070494;28;20028;-67
2022/07/28 06:02:45;;;;;;;1.00;0.60;;;;;;;26.05;40.34;101981.09;5071797;28;20090;-67
2022/07/28 06:05:11;;;;;;;0.82;0.60;;;;;;;26.04;40.37;101982.91;5062471;28;20596;-67
2022/07/28 06:07:37;;;;;;;1.00;0.60;;;;;;;26.19;40.00;101985.06;5051649;28;20025;-67
2022/07/28 06:10:03;;;;;;;0.80;0.60;;;;;;;26.24;39.89;101982.25;5051693;28;20494;-67
2022/07/28 06:12:28;;;;;;;1.58;0.65;;;;;;;26.38;39.77;101990.69;5050214;28;20025;-66
2022/07/28 06:14:53;;;;;;;0.90;0.60;;;;;;;26.47;39.65;101993.03;5033947;28;20380;-66
2022/07/28 06:17:19;;;;;;;0.55;0.50;;;;;;;26.53;39.54;101987.47;5050732;28;20082;-67
2022/07/28 06:19:44;;;;;;;0.70;0.50;;;;;;;26.67;39.35;101989.66;5050214;28;20061;-67
2022/07/28 06:22:10;;;;;;;1.90;0.50;;;;;;;26.72;38.75;101989.47;5051411;28;20087;-67
2022/07/28 06:24:35;;;;;;;0.93;0.70;;;;;;;26.81;38.80;101989.16;5065508;28;20085;-67
2022/07/28 06:27:01;;;;;;;0.85;0.40;;;;;;;26.97;38.58;101985.88;5069901;28;20032;-67
2022/07/28 06:29:30;;;;;;;0.70;0.57;;;;;;;26.99;38.42;101991.19;5070556;28;20086;-67
2022/07/28 06:31:55;;;;;;;1.10;0.70;;;;;;;27.02;38.65;101991.94;5061351;28;20052;-67
2022/07/28 06:34:21;;;;;;;0.65;0.50;;;;;;;26.94;38.72;101999.41;5069598;28;20064;-66
2022/07/28 06:36:47;;;;;;;0.70;0.60;;;;;;;26.85;38.92;101996.13;5054677;28;20087;-67
2022/07/28 06:39:12;;;;;;;0.60;0.60;;;;;;;26.72;39.08;102003.72;5050560;28;20491;-67
2022/07/28 06:41:43;;;;;;;0.77;0.57;;;;;;;26.66;39.25;101998.59;5051058;28;20029;-67
2022/07/28 06:44:08;;;;;;;1.63;0.50;;;;;;;26.58;39.47;102001.56;5050750;28;20128;-67
2022/07/28 06:46:34;;;;;;;1.02;0.57;;;;;;;26.57;39.43;101997.16;5068962;28;20495;-67
2022/07/28 06:49:00;;;;;;;0.60;0.57;;;;;;;26.51;39.51;101997.38;5070079;28;20036;-67
2022/07/28 06:51:25;;;;;;;0.88;0.60;;;;;;;26.52;39.67;101999.13;5070878;28;20090;-67
2022/07/28 06:53:51;;;;;;;0.82;0.50;;;;;;;26.50;39.59;101998.28;5052937;28;20107;-67
2022/07/28 06:56:18;;;;;;;0.50;0.50;;;;;;;26.49;39.80;102001.00;5051400;28;20033;-66
2022/07/28 06:58:43;;;;;;;0.70;0.60;;;;;;;26.50;39.79;101998.28;5050289;28;20036;-67
2022/07/28 07:01:09;;;;;;;0.60;0.60;;;;;;;26.50;39.84;101997.41;5050593;28;20513;-67
2022/07/28 07:03:34;;;;;;;0.73;0.60;;;;;;;26.49;39.69;101991.19;5064431;28;20132;-67
2022/07/28 07:06:00;;;;;;;0.88;0.50;;;;;;;26.47;39.83;101989.50;5070283;28;20150;-67
2022/07/28 07:08:25;;;;;;;0.60;0.55;;;;;;;26.45;39.64;101992.22;5070340;28;20036;-67
2022/07/28 07:10:51;;;;;;;1.10;0.63;;;;;;;26.47;39.96;101993.03;5055539;28;20623;-67
2022/07/28 07:13:16;;;;;;;0.63;0.57;;;;;;;26.44;39.75;101989.59;5050494;28;20129;-67
2022/07/28 07:15:42;;;;;;;1.00;0.60;;;;;;;26.41;39.90;101987.91;5050612;28;20068;-67
2022/07/28 07:18:07;;;;;;;0.60;0.60;;;;;;;26.43;40.03;101987.84;5050208;28;20552;-67
2022/07/28 07:20:32;;;;;;;0.60;0.60;;;;;;;26.42;40.05;101986.97;5050376;28;20108;-66
2022/07/28 07:22:58;;;;;;;0.70;0.50;;;;;;;26.44;39.85;101984.25;5050761;28;20033;-67
2022/07/28 07:25:23;;;;;;;0.50;0.50;;;;;;;26.43;39.79;101986.06;5069513;28;20028;-67
2022/07/28 07:27:48;;;;;;;0.82;0.60;;;;;;;26.43;39.97;101982.50;5070129;28;20034;-67
2022/07/28 07:30:15;;;;;;;0.60;0.50;;;;;;;26.40;40.07;101977.28;5070077;28;20024;-67
2022/07/28 07:32:41;;;;;;;0.60;0.60;;;;;;;26.40;40.03;101980.81;5069440;28;20082;-67
2022/07/28 07:35:07;;;;;;;0.60;0.60;;;;;;;26.39;40.12;101978.19;5069759;28;20040;-67
2022/07/28 07:37:32;;;;;;;0.70;0.60;;;;;;;26.38;39.94;101971.09;5069874;28;20489;-67
2022/07/28 07:39:59;;;;;;;1.20;0.60;;;;;;;26.39;40.07;101972.84;5068547;28;20061;-66
2022/07/28 07:42:24;;;;;;;0.57;0.50;;;;;;;26.36;40.18;101971.13;5052767;28;20051;-67
2022/07/28 07:44:50;;;;;;;0.63;0.60;;;;;;;26.37;40.00;101972.91;5049017;28;20080;-67
2022/07/28 07:47:17;;;;;;;0.93;0.70;;;;;;;26.38;40.18;101965.75;5049437;28;20044;-67
2022/07/28 07:49:42;;;;;;;0.60;0.57;;;;;;;26.36;40.22;101963.13;5049646;28;20064;-67
2022/07/28 07:52:07;;;;;;;1.00;0.60;;;;;;;26.36;40.07;101965.78;5049367;28;20052;-67
2022/07/28 07:54:33;;;;;;;0.93;0.60;;;;;;;26.36;40.19;101970.25;5057933;28;20124;-67
2022/07/28 07:56:58;;;;;;;1.02;0.57;;;;;;;26.34;40.29;101961.44;5049429;28;20048;-67
2022/07/28 07:59:23;;;;;;;0.50;0.50;;;;;;;26.37;40.17;101956.84;5049097;28;20032;-67
2022/07/28 08:01:55;;;;;;;0.95;0.60;;;;;;;26.34;40.36;101953.44;5049533;28;20044;-67
2022/07/28 08:04:21;;;;;;;0.50;0.50;;;;;;;26.36;40.33;101951.56;5062076;28;20024;-67
2022/07/28 08:06:48;;;;;;;0.80;0.60;;;;;;;26.36;40.20;101959.56;5069361;28;20028;-67
2022/07/28 08:09:14;;;;;;;0.70;0.60;;;;;;;26.37;40.20;101954.19;5069232;28;20028;-67
2022/07/28 08:11:39;;;;;;;0.60;0.55;;;;;;;26.34;40.29;101956.97;5066946;28;20036;-67
2022/07/28 08:14:05;;;;;;;0.80;0.65;;;;;;;26.37;40.32;101956.84;5048330;28;20079;-67
2022/07/28 08:16:30;;;;;;;0.75;0.60;;;;;;;26.35;40.35;101955.19;5048070;28;20499;-67
2022/07/28 08:18:57;;;;;;;0.63;0.50;;;;;;;26.35;40.20;101953.34;5049110;28;20128;-67
2022/07/28 08:21:24;;;;;;;0.88;0.50;;;;;;;26.40;39.97;101954.09;5049208;28;20047;-67
2022/07/28 08:23:50;;;;;;;1.65;0.50;;;;;;;26.40;40.25;101959.44;5047967;28;20032;-67
2022/07/28 08:26:15;;;;;;;0.73;0.60;;;;;;;26.37;40.32;101955.97;5049595;28;20037;-67
2022/07/28 08:28:41;;;;;;;0.73;0.60;;;;;;;26.40;40.37;101954.09;5049142;28;20056;-66
2022/07/28 08:31:06;;;;;;;0.50;0.50;;;;;;;26.41;40.12;101954.97;5048970;28;20029;-67
2022/07/28 08:33:31;;;;;;;0.95;0.60;;;;;;;26.41;40.23;101961.16;5048799;28;20067;-67
2022/07/28 08:35:57;;;;;;;0.85;0.50;;;;;;;26.39;40.64;101960.34;5047657;28;20048;-67
2022/07/28 08:38:22;;;;;;;1.15;0.60;;;;;;;26.41;40.48;101965.66;5049177;28;20025;-67
2022/07/28 08:40:50;;;;;;;0.80;0.50;;;;;;;26.38;40.30;101961.28;5055980;28;20063;-66
2022/07/28 08:43:27;;;;;;;0.80;0.60;;;;;;;26.37;40.34;101964.00;5053034;28;20079;-67
2022/07/28 08:45:54;;;;;;;0.73;0.50;;;;;;;26.37;40.39;101953.31;5048835;28;20483;-67
2022/07/28 08:48:22;;;;;;;0.70;0.60;;;;;;;26.37;40.33;101966.66;5047276;28;20095;-67
2022/07/28 08:50:49;;;;;;;0.80;0.57;;;;;;;26.37;40.39;101964.00;5049016;28;20033;-67
2022/07/28 08:53:16;;;;;;;0.80;0.50;;;;;;;26.35;40.39;101958.69;5047567;28;20040;-67
2022/07/28 08:55:42;;;;;;;1.30;0.60;;;;;;;26.36;40.50;101964.91;5052486;28;20495;-67
2022/07/28 08:58:10;;;;;;;1.17;0.77;;;;;;;26.35;40.51;101964.03;5050642;28;20021;-67
2022/07/28 09:00:36;;;;;;;0.63;0.60;;;;;;;26.36;40.47;101963.13;5067657;28;20056;-66
2022/07/28 09:03:03;;;;;;;0.68;0.50;;;;;;;26.36;40.45;101967.59;5072849;28;20591;-67
2022/07/28 09:05:29;;;;;;;0.50;0.50;;;;;;;26.35;40.37;101965.88;5072594;28;20103;-67
2022/07/28 09:07:54;;;;;;;0.70;0.60;;;;;;;26.36;40.14;101970.25;5072551;28;20109;-67
2022/07/28 09:10:20;;;;;;;0.77;0.60;;;;;;;26.35;40.45;101963.19;5072537;28;20119;-68
2022/07/28 09:12:46;;;;;;;0.60;0.50;;;;;;;26.34;40.59;101959.66;5064348;28;20033;-66
2022/07/28 09:15:12;;;;;;;0.70;0.50;;;;;;;26.36;40.46;101957.78;5053074;28;20039;-67
2022/07/28 09:17:40;;;;;;;0.65;0.60;;;;;;;26.36;40.43;101949.75;5072717;28;21695;-67
2022/07/28 09:20:06;;;;;;;1.38;0.57;;;;;;;26.36;40.53;101948.88;5072467;28;20035;-67
2022/07/28 09:22:32;;;;;;;0.80;0.60;;;;;;;26.37;40.43;101948.81;5072094;28;20570;-66
2022/07/28 09:24:59;;;;;;;1.15;0.50;;;;;;;26.38;40.43;101945.22;5071796;28;20025;-67
2022/07/28 09:27:25;;;;;;;0.88;0.50;;;;;;;26.40;40.51;101953.22;5072284;28;20041;-67
2022/07/28 09:29:59;;;;;;;0.95;0.52;;;;;;;26.40;40.25;101953.22;5071118;28;20532;-67
2022/07/28 09:32:24;;;;;;;;;;;;;;;26.42;40.38;101952.22;5072638;28;20040;-67
2022/07/28 09:34:50;;;;;;;0.70;0.50;;;;;;;26.46;40.33;101947.66;5071812;28;19934;-66
2022/07/28 09:37:24;;;;;;;0.60;0.60;;;;;;;26.47;40.29;101952.91;5072320;28;20413;-67
2022/07/28 09:39:51;;;;;;;0.70;0.50;;;;;;;26.45;40.48;101954.78;5072174;28;20136;-67
2022/07/28 09:42:18;;;;;;;0.90;0.50;;;;;;;26.47;40.19;101958.25;5071902;28;20040;-66
2022/07/28 09:44:44;;;;;;;0.65;0.50;;;;;;;26.49;39.95;101959.09;5070222;28;20056;-67
2022/07/28 09:47:23;;;;;;;0.63;0.60;;;;;;;26.50;40.37;101962.63;5057567;28;20033;-67
2022/07/28 09:49:49;;;;;;;0.50;0.50;;;;;;;26.49;40.35;101956.41;5051980;28;20028;-67
2022/07/28 09:52:44;;;;;;;0.95;0.60;;;;;;;26.49;40.35;101947.53;5051579;28;20037;-66
2022/07/28 09:55:10;;;;;;;0.90;0.60;;;;;;;26.50;40.36;101954.63;5049895;28;20055;-66
2022/07/28 09:57:38;;;;;;;0.60;0.60;;;;;;;26.51;40.39;101956.38;5051870;28;20055;-67
2022/07/28 10:00:08;;;;;;;0.73;0.52;;;;;;;26.50;40.39;101951.94;5051753;28;20029;-67
2022/07/28 10:02:34;;;;;;;0.63;0.60;;;;;;;26.49;40.31;101956.41;5051807;28;20100;-67
2022/07/28 10:05:00;;;;;;;0.65;0.52;;;;;;;26.50;40.27;101955.50;5052225;28;20111;-67
2022/07/28 10:07:30;;;;;;;0.60;0.50;;;;;;;26.50;40.43;101952.81;5051183;28;20036;-67
2022/07/28 10:10:06;;;;;;;1.10;0.57;;;;;;;26.50;40.28;101950.16;5056190;28;21132;-66
2022/07/28 10:12:36;;;;;;;0.60;0.50;;;;;;;26.48;40.53;101948.44;5069960;28;20540;-67
2022/07/28 10:17:59;;;;;;;1.00;0.70;;;;;;;26.51;40.37;101951.91;5071720;28;20807;-67
2022/07/28 10:20:27;;;;;;;0.75;0.52;;;;;;;26.52;40.33;101945.63;5058461;28;20752;-67
2022/07/28 10:23:00;;;;;;;0.70;0.50;;;;;;;26.53;40.43;101946.50;5051909;28;20029;-67
2022/07/28 10:25:28;;;;;;;0.60;0.50;;;;;;;26.54;40.01;101938.41;5071003;28;20143;-66
2022/07/28 10:27:55;;;;;;;0.75;0.55;;;;;;;26.53;40.22;101939.31;5071164;28;20039;-67
2022/07/28 10:30:21;;;;;;;0.60;0.50;;;;;;;26.54;40.24;101940.19;5071370;28;20348;-67
2022/07/28 10:32:47;;;;;;;0.50;0.50;;;;;;;26.54;40.25;101933.06;5065023;28;20043;-67
2022/07/28 10:35:14;;;;;;;0.75;0.50;;;;;;;26.55;40.32;101936.59;5052227;28;20047;-68
2022/07/28 10:38:06;;;;;;;0.77;0.57;;;;;;;26.55;40.44;101928.56;5051192;28;20430;-67
2022/07/28 10:40:37;;;;;;;1.23;0.60;;;;;;;26.56;40.41;101933.00;5046264;28;20044;-67
2022/07/28 10:43:02;;;;;;;0.80;0.60;;;;;;;26.56;40.36;101930.31;5051106;28;20021;-67
2022/07/28 10:45:28;;;;;;;0.88;0.63;;;;;;;26.57;40.46;101934.75;5058069;28;20036;-67
2022/07/28 10:47:54;;;;;;;0.68;0.60;;;;;;;26.55;40.27;101932.13;5052744;28;20581;-66
2022/07/28 10:50:20;;;;;;;0.75;0.50;;;;;;;26.57;40.20;101934.75;5070690;28;20024;-67
2022/07/28 10:52:47;;;;;;;0.93;0.60;;;;;;;26.55;40.38;101931.25;5070450;28;20140;-67
2022/07/28 10:55:45;;;;;;;0.95;0.60;;;;;;;26.56;40.29;101936.56;5059870;28;20047;-67
2022/07/28 10:58:24;;;;;;;0.50;0.50;;;;;;;26.56;40.44;101933.00;5050582;28;20494;-67
2022/07/28 11:00:51;;;;;;;0.65;0.50;;;;;;;26.57;40.23;101924.06;5049238;28;20053;-66
2022/07/28 11:03:35;;;;;;;0.40;0.40;;;;;;;26.56;40.34;101930.31;5055254;28;20458;-67
2022/07/28 11:06:23;;;;;;;0.93;0.60;;;;;;;26.58;40.29;101924.00;5066017;28;20035;-67
2022/07/28 11:08:51;;;;;;;0.50;0.50;;;;;;;26.61;40.45;101923.00;5050618;28;20163;-67
2022/07/28 11:11:50;;;;;;;0.60;0.60;;;;;;;26.61;40.40;101921.22;5050235;28;20106;-67
2022/07/28 11:14:24;;;;;;;0.82;0.50;;;;;;;26.62;40.13;101916.72;5044527;28;20041;-67
2022/07/28 11:17:10;;;;;;;0.70;0.50;;;;;;;26.62;40.16;101917.59;5050338;28;20028;-67
2022/07/28 11:19:44;;;;;;;0.80;0.50;;;;;;;26.65;40.30;101911.28;5049102;28;20475;-66
2022/07/28 11:22:20;;;;;;;0.40;0.40;;;;;;;26.63;40.24;101915.81;5049743;28;20146;-66
2022/07/28 11:25:04;;;;;;;0.68;0.60;;;;;;;26.64;40.24;101920.22;5050258;28;20375;-67
2022/07/28 11:27:44;;;;;;;0.82;0.60;;;;;;;26.64;40.11;101912.22;5050283;28;20032;-67
2022/07/28 11:30:26;;;;;;;0.50;0.50;;;;;;;26.66;40.17;101907.66;5057404;28;20032;-66
2022/07/28 11:32:54;;;;;;;0.70;0.60;;;;;;;26.66;40.04;101908.53;5055447;28;20025;-67